Aviation Digital Data Service (ADDS)

Output produced by TAFs form (2211 UTC 18 October 2017)
found at http://www.aviationweather.gov/adds/tafs/
 
METAR text: WSSL 182200Z 00000KT 9999 FEW018 BKN280 28/25 Q1009 RMK 1430Z Q1010
Conditions at: WSSL (SINGAPORE/SELETA, SG) observed 2200 UTC 18 October 2017
Temperature: 28.0°C (82°F)
Dewpoint: 25.0°C (77°F) [RH = 84%]
Pressure (altimeter): 29.79 inches Hg (1009.0 mb)
Winds: calm
Visibility: 6 or more miles (10+ km)
Ceiling: 28000 feet AGL
Clouds: few clouds at 1800 feet AGL
broken clouds at 28000 feet AGL
Weather: no significant weather observed at this time

Forecast for: WSSL (SINGAPORE/SELETA, SG)
Text: TAF WSSL 181700Z 1818/2000 24007KT 9999 FEW018CB SCT020
Forecast period: 1800 UTC 18 October 2017 to 0000 UTC 20 October 2017
Forecast type: FROM: standard forecast or significant change
Winds: from the WSW (240 degrees) at 8 MPH (7 knots; 3.6 m/s)
Visibility: 6 or more miles (10+ km)
Clouds: few clouds at 1800 feet AGL
scattered clouds at 2000 feet AGL
Weather: no significant weather forecast for this period
Text: PROB30
Forecast period: 0700 to 1000 UTC 19 October 2017
Forecast type: TEMPORARY: The following changes expected for less than half the time period
Visibility: 2.80 miles (4.51 km)
Ceiling: 1500 feet AGL
Clouds: few clouds at 1200 feet AGL
broken clouds at 1500 feet AGL
Weather: SHRA  (rain showers)